Time;durP1;ratioP1;P1;durP2;ratioP2;P2;SDS_P1;SDS_P2;PMS_P1;PMS_P2;Temp;Humidity;BMP_temperature;BMP_pressure;BME280_temperature;BME280_humidity;BME280_pressure;Samples;Min_cycle;Max_cycle;Signal;HPM_P1;HPM_P2
2021/06/15 00:02:27;;;;;;;22.95;7.65;;;;;;;12.47;65.75;100642.95;130088;1093;22625;-55
2021/06/15 00:04:58;;;;;;;20.93;7.33;;;;;;;12.43;65.84;100643.16;130015;1091;22488;-56
2021/06/15 00:07:30;;;;;;;18.40;8.23;;;;;;;12.42;65.90;100646.41;129979;1093;22515;-55
2021/06/15 00:10:04;;;;;;;19.20;7.45;;;;;;;12.40;66.01;100641.30;130051;1093;22612;-54
2021/06/15 00:12:35;;;;;;;24.05;8.20;;;;;;;12.39;65.88;100622.19;130167;1093;22644;-55
2021/06/15 00:15:09;;;;;;;24.73;9.37;;;;;;;12.39;66.40;100625.77;129969;1093;22582;-61
2021/06/15 00:17:45;;;;;;;25.35;9.40;;;;;;;12.38;66.36;100618.61;130227;1092;23058;-61
2021/06/15 00:20:26;;;;;;;21.45;9.80;;;;;;;12.36;66.66;100618.33;130120;1093;22562;-60
2021/06/15 00:22:58;;;;;;;23.13;9.97;;;;;;;12.34;66.96;100620.05;130209;1092;23348;-61
2021/06/15 00:25:29;;;;;;;25.95;10.55;;;;;;;12.30;67.27;100617.45;130187;1093;22527;-61
2021/06/15 00:28:01;;;;;;;24.25;10.60;;;;;;;12.27;66.87;100623.25;130205;1092;23446;-60
2021/06/15 00:30:36;;;;;;;25.65;11.40;;;;;;;12.24;66.74;100610.20;130171;1092;22646;-60
2021/06/15 00:33:08;;;;;;;23.93;10.87;;;;;;;12.22;66.84;100612.72;130206;1093;22483;-61
2021/06/15 00:35:40;;;;;;;23.65;11.15;;;;;;;12.17;66.69;100606.53;130183;1093;22496;-62
2021/06/15 00:38:13;;;;;;;30.27;13.07;;;;;;;12.12;67.07;100604.39;130202;1093;23429;-61
2021/06/15 00:40:44;;;;;;;28.60;11.93;;;;;;;12.08;66.94;100603.81;130174;1093;22517;-61
2021/06/15 00:43:16;;;;;;;29.35;12.65;;;;;;;12.05;66.96;100620.80;130192;1093;23374;-59
2021/06/15 00:45:47;;;;;;;30.40;11.35;;;;;;;12.00;66.97;100613.84;130173;1093;22508;-61
2021/06/15 00:48:31;;;;;;;28.65;12.90;;;;;;;11.98;67.44;100621.19;130195;1092;22500;-61
2021/06/15 00:51:05;;;;;;;27.30;12.50;;;;;;;11.94;67.50;100626.17;130178;1093;23492;-61
2021/06/15 00:53:37;;;;;;;29.37;12.97;;;;;;;11.88;67.53;100623.28;130190;1092;22498;-59
2021/06/15 00:56:09;;;;;;;27.20;12.93;;;;;;;11.84;67.49;100610.72;130172;1093;22551;-59
2021/06/15 00:58:40;;;;;;;26.00;11.05;;;;;;;11.79;67.27;100603.79;130214;1093;22561;-61
2021/06/15 01:01:12;;;;;;;24.95;11.80;;;;;;;11.75;67.28;100608.02;130188;1092;22555;-61
2021/06/15 01:03:44;;;;;;;24.87;11.33;;;;;;;11.67;67.53;100613.18;130205;1093;22576;-61
2021/06/15 01:06:25;;;;;;;26.10;11.47;;;;;;;11.62;67.50;100599.06;130181;1093;22576;-61
2021/06/15 01:09:03;;;;;;;26.00;10.97;;;;;;;11.57;67.65;100594.12;130216;1093;22487;-59
2021/06/15 01:11:53;;;;;;;23.07;10.43;;;;;;;11.54;67.52;100598.66;130193;1092;22605;-61
2021/06/15 01:14:38;;;;;;;27.33;11.90;;;;;;;11.49;67.91;100593.72;130183;1092;23059;-59
2021/06/15 01:17:15;;;;;;;23.43;10.13;;;;;;;11.47;67.87;100589.84;130166;1093;23277;-61
2021/06/15 01:19:56;;;;;;;23.80;11.35;;;;;;;11.43;67.92;100584.45;130173;1093;22574;-61
2021/06/15 01:22:53;;;;;;;26.07;9.60;;;;;;;11.44;67.99;100588.80;130150;1093;23060;-59
2021/06/15 01:25:32;;;;;;;25.57;9.57;;;;;;;11.39;68.28;100590.23;129881;1096;22639;-61
2021/06/15 01:28:09;;;;;;;21.30;9.35;;;;;;;11.34;68.44;100578.91;129826;1094;22528;-61
2021/06/15 01:30:50;;;;;;;22.43;8.73;;;;;;;11.31;68.46;100591.05;129804;1096;22519;-61
2021/06/15 01:33:23;;;;;;;19.40;7.88;;;;;;;11.25;68.41;100590.94;129857;1096;22501;-61
2021/06/15 01:35:58;;;;;;;23.30;7.45;;;;;;;11.22;68.38;100591.88;129852;1095;22518;-61
2021/06/15 01:38:36;;;;;;;23.93;8.73;;;;;;;11.20;69.06;100596.39;129887;1095;22503;-61
2021/06/15 01:41:12;;;;;;;21.40;9.93;;;;;;;11.18;69.00;100585.70;129849;1095;22553;-60
2021/06/15 01:43:46;;;;;;;20.85;7.90;;;;;;;11.14;69.16;100571.13;129851;1096;22556;-61
2021/06/15 01:46:24;;;;;;;18.15;7.75;;;;;;;11.11;68.86;100566.48;129841;1094;22442;-59
2021/06/15 01:49:02;;;;;;;19.00;7.25;;;;;;;11.05;69.05;100568.38;129871;1096;23378;-59
2021/06/15 01:51:36;;;;;;;18.53;7.20;;;;;;;11.01;68.93;100567.00;129862;1095;22523;-61
2021/06/15 01:54:10;;;;;;;20.65;8.45;;;;;;;10.97;69.31;100561.59;129873;1095;22528;-61
2021/06/15 01:56:43;;;;;;;19.20;7.15;;;;;;;10.94;69.41;100562.56;129895;1095;22653;-61
2021/06/15 01:59:18;;;;;;;17.00;6.20;;;;;;;10.93;69.36;100560.22;129859;1096;22516;-59
2021/06/15 02:01:54;;;;;;;19.90;7.25;;;;;;;10.90;69.38;100555.59;129842;1095;22526;-60
2021/06/15 02:04:30;;;;;;;21.10;7.85;;;;;;;10.87;69.35;100550.95;130127;1092;23460;-61
2021/06/15 02:07:03;;;;;;;17.70;6.17;;;;;;;10.83;69.36;100553.92;130199;1092;23266;-61
2021/06/15 02:09:39;;;;;;;20.03;7.67;;;;;;;10.82;69.36;100551.61;130190;1092;22488;-59
2021/06/15 02:12:11;;;;;;;18.65;8.05;;;;;;;10.79;69.49;100552.54;130187;1093;22534;-62
2021/06/15 02:14:43;;;;;;;18.65;6.75;;;;;;;10.77;69.60;100555.81;130194;1092;22615;-59
2021/06/15 02:17:19;;;;;;;20.23;6.97;;;;;;;10.77;69.48;100552.23;130205;1093;22491;-59
2021/06/15 02:19:52;;;;;;;23.87;7.63;;;;;;;10.75;69.81;100552.72;130207;1093;22995;-58
2021/06/15 02:22:26;;;;;;;17.07;6.23;;;;;;;10.72;69.74;100548.06;130200;1092;22553;-58
2021/06/15 02:25:03;;;;;;;22.13;7.73;;;;;;;10.67;69.64;100536.78;130201;1093;22556;-59
2021/06/15 02:27:35;;;;;;;20.83;6.90;;;;;;;10.61;69.65;100539.45;130218;1093;22500;-59
2021/06/15 02:30:08;;;;;;;18.43;6.47;;;;;;;10.57;69.82;100547.23;130214;1093;22591;-62
2021/06/15 02:32:44;;;;;;;20.10;6.73;;;;;;;10.55;69.91;100535.76;130191;1092;23201;-61
2021/06/15 02:35:19;;;;;;;19.27;7.47;;;;;;;10.55;70.58;100544.88;130204;1093;22494;-61
2021/06/15 02:37:54;;;;;;;17.55;7.00;;;;;;;10.53;70.23;100544.59;130211;1092;22524;-61
2021/06/15 02:40:28;;;;;;;20.73;6.57;;;;;;;10.51;70.46;100549.11;130170;1093;23080;-60
2021/06/15 02:43:01;;;;;;;19.90;7.03;;;;;;;10.48;70.74;100550.83;130203;1093;23632;-60
2021/06/15 02:45:34;;;;;;;18.13;6.57;;;;;;;10.44;70.40;100547.42;130208;1093;22495;-60
2021/06/15 02:48:10;;;;;;;17.73;5.93;;;;;;;10.39;70.31;100556.42;130214;1093;22562;-60
2021/06/15 02:50:42;;;;;;;18.47;7.13;;;;;;;10.35;70.43;100557.83;130198;1091;22584;-61
2021/06/15 02:53:19;;;;;;;19.07;6.27;;;;;;;10.33;70.41;100563.11;130179;1093;22535;-60
2021/06/15 02:55:56;;;;;;;19.53;6.77;;;;;;;10.29;70.33;100554.91;130196;1091;22580;-61
2021/06/15 02:58:31;;;;;;;17.60;6.30;;;;;;;10.26;70.42;100561.41;130203;1092;22473;-61
2021/06/15 03:01:02;;;;;;;19.17;7.17;;;;;;;10.24;70.61;100565.94;130193;1093;22638;-60
2021/06/15 03:03:35;;;;;;;20.50;6.80;;;;;;;10.25;70.86;100573.05;130234;1093;22535;-58
2021/06/15 03:06:08;;;;;;;18.20;6.40;;;;;;;10.25;71.04;100582.20;130205;1093;23297;-61
2021/06/15 03:08:42;;;;;;;23.03;7.30;;;;;;;10.27;71.02;100570.56;130210;1093;23091;-58
2021/06/15 03:11:15;;;;;;;17.33;6.17;;;;;;;10.25;71.16;100571.05;130199;1093;22492;-61
2021/06/15 03:13:54;;;;;;;17.83;6.07;;;;;;;10.25;71.10;100578.63;130208;1092;23353;-61
2021/06/15 03:16:31;;;;;;;16.20;5.70;;;;;;;10.23;70.73;100586.70;130196;1092;22604;-59
2021/06/15 03:19:07;;;;;;;16.07;6.37;;;;;;;10.23;71.34;100590.27;130207;1093;22486;-59
2021/06/15 03:21:46;;;;;;;20.77;6.53;;;;;;;10.26;71.50;100585.78;130195;1092;23398;-60
2021/06/15 03:24:24;;;;;;;17.33;6.60;;;;;;;10.29;71.59;100587.62;130166;1093;22532;-61
2021/06/15 03:27:03;;;;;;;17.43;7.43;;;;;;;10.28;71.55;100581.25;130199;1093;22628;-60
2021/06/15 03:29:39;;;;;;;16.97;6.27;;;;;;;10.27;71.69;100588.09;130213;1093;22513;-61
2021/06/15 03:32:13;;;;;;;18.40;7.07;;;;;;;10.29;71.81;100588.39;130195;1093;23028;-62
2021/06/15 03:34:48;;;;;;;19.97;7.87;;;;;;;10.30;71.82;100584.38;130228;1093;23024;-60
2021/06/15 03:37:22;;;;;;;20.47;7.80;;;;;;;10.34;72.07;100590.56;130218;1092;22486;-59
2021/06/15 03:39:55;;;;;;;20.80;7.97;;;;;;;10.39;72.25;100589.92;130175;1093;23346;-59
2021/06/15 03:42:37;;;;;;;18.47;7.17;;;;;;;10.47;72.47;100587.56;130207;1092;22606;-59
2021/06/15 03:45:11;;;;;;;20.55;7.65;;;;;;;10.52;72.64;100598.10;130194;1092;22532;-61
2021/06/15 03:47:47;;;;;;;17.27;7.13;;;;;;;10.56;72.98;100596.70;130182;1091;23241;-61
2021/06/15 03:50:20;;;;;;;20.53;7.10;;;;;;;10.62;72.68;100593.25;130181;1092;23173;-60
2021/06/15 03:52:56;;;;;;;21.47;8.03;;;;;;;10.69;72.75;100590.91;130196;1092;22481;-59
2021/06/15 03:55:32;;;;;;;20.83;7.70;;;;;;;10.74;72.81;100587.47;130222;1093;22517;-60
2021/06/15 03:58:07;;;;;;;21.33;8.43;;;;;;;10.81;73.23;100595.52;130165;1092;23097;-58
2021/06/15 04:00:45;;;;;;;29.00;9.90;;;;;;;10.88;73.19;100586.80;130219;1091;22528;-61
2021/06/15 04:03:18;;;;;;;24.10;9.53;;;;;;;10.97;73.38;100588.75;130230;1093;22567;-59
2021/06/15 04:05:53;;;;;;;23.40;8.43;;;;;;;11.06;72.82;100581.11;130183;1092;23053;-60
2021/06/15 04:08:26;;;;;;;22.97;9.03;;;;;;;11.17;73.28;100581.34;130207;1093;22528;-58
2021/06/15 04:10:59;;;;;;;19.50;8.60;;;;;;;11.27;73.23;100582.86;130193;1092;22554;-59
2021/06/15 04:13:33;;;;;;;24.67;10.07;;;;;;;11.37;73.17;100578.75;130200;1093;23287;-59
2021/06/15 04:16:06;;;;;;;26.83;10.37;;;;;;;11.51;72.96;100580.03;130152;1093;22524;-61
2021/06/15 04:18:38;;;;;;;23.33;9.67;;;;;;;11.61;72.98;100575.91;130210;1093;23320;-61
2021/06/15 04:21:14;;;;;;;25.95;9.60;;;;;;;11.70;73.11;100584.27;130220;1092;22558;-62
2021/06/15 04:23:50;;;;;;;27.25;9.70;;;;;;;11.82;73.02;100580.44;130198;1091;22493;-61
2021/06/15 04:26:21;;;;;;;21.37;8.87;;;;;;;11.94;72.96;100579.39;130195;1092;22489;-61
2021/06/15 04:28:53;;;;;;;21.60;8.45;;;;;;;12.11;72.79;100586.08;130201;1093;22552;-61
2021/06/15 04:31:29;;;;;;;23.15;9.10;;;;;;;12.25;72.73;100578.92;130188;1093;22523;-60
2021/06/15 04:34:02;;;;;;;24.70;10.60;;;;;;;12.38;72.89;100582.22;130211;1093;22589;-61
2021/06/15 04:36:35;;;;;;;21.05;9.80;;;;;;;12.52;72.74;100589.83;130179;1092;22611;-61
2021/06/15 04:39:14;;;;;;;24.75;10.20;;;;;;;12.64;72.82;100585.95;130196;1092;22586;-61
2021/06/15 04:41:54;;;;;;;26.35;9.90;;;;;;;12.77;72.57;100585.64;130160;1093;23079;-61
2021/06/15 04:44:30;;;;;;;22.45;9.20;;;;;;;12.88;72.79;100585.83;130205;1093;22648;-61
2021/06/15 04:47:06;;;;;;;28.05;11.00;;;;;;;12.99;72.70;100591.61;130204;1092;23026;-61
2021/06/15 04:49:44;;;;;;;24.20;9.70;;;;;;;13.08;72.53;100593.55;130146;1093;22487;-59
2021/06/15 04:52:20;;;;;;;19.50;8.65;;;;;;;13.14;72.53;100589.53;130171;1093;22517;-60
2021/06/15 04:54:55;;;;;;;23.10;9.50;;;;;;;13.27;72.35;100592.79;130161;1093;22626;-61
2021/06/15 04:57:30;;;;;;;22.67;9.57;;;;;;;13.39;72.44;100594.47;130197;1093;22510;-59
2021/06/15 05:00:03;;;;;;;24.35;10.30;;;;;;;13.48;72.38;100599.18;130206;1091;22474;-62
2021/06/15 05:02:36;;;;;;;26.20;9.67;;;;;;;13.62;71.87;100598.33;130169;1093;22600;-62
2021/06/15 05:05:12;;;;;;;23.47;9.70;;;;;;;13.79;72.18;100602.12;130175;1093;22584;-62
2021/06/15 05:07:44;;;;;;;25.90;9.73;;;;;;;13.93;71.63;100603.28;130194;1093;22462;-61
2021/06/15 05:10:16;;;;;;;22.83;9.30;;;;;;;14.04;71.58;100595.77;130161;1092;22657;-66
2021/06/15 05:12:48;;;;;;;25.60;11.23;;;;;;;14.22;72.11;100603.08;130147;1093;22943;-60
2021/06/15 05:15:23;;;;;;;24.85;10.10;;;;;;;14.33;71.15;100597.61;130119;1093;23334;-61
2021/06/15 05:17:57;;;;;;;23.00;9.90;;;;;;;14.44;70.94;100597.73;130102;1093;22575;-61
2021/06/15 05:20:29;;;;;;;22.90;9.40;;;;;;;14.57;71.19;100598.85;130163;1093;22632;-60
2021/06/15 05:23:08;;;;;;;29.07;9.63;;;;;;;14.69;70.15;100605.33;130188;1092;23014;-60
2021/06/15 05:25:40;;;;;;;22.65;10.40;;;;;;;14.73;70.24;100602.31;130182;1093;22624;-60
2021/06/15 05:28:12;;;;;;;27.30;9.95;;;;;;;14.86;70.65;100599.83;130158;1093;22453;-61
2021/06/15 05:30:43;;;;;;;24.27;10.27;;;;;;;15.03;69.92;100595.10;130182;1092;22439;-63
2021/06/15 05:33:15;;;;;;;25.00;8.90;;;;;;;15.17;70.58;100583.70;130189;1092;22475;-60
2021/06/15 05:35:46;;;;;;;24.20;10.30;;;;;;;15.40;70.36;100588.17;130207;1093;22532;-60
2021/06/15 05:38:18;;;;;;;23.87;10.50;;;;;;;15.62;70.01;100592.39;130192;1093;22514;-61
2021/06/15 05:40:49;;;;;;;22.25;9.90;;;;;;;15.78;69.59;100589.64;130201;1092;22764;-61
2021/06/15 05:43:21;;;;;;;20.67;9.27;;;;;;;15.93;69.55;100595.06;130181;1093;22500;-66
2021/06/15 05:45:53;;;;;;;24.85;9.65;;;;;;;16.04;69.44;100592.27;130271;1093;22518;-62
2021/06/15 05:48:24;;;;;;;20.50;9.15;;;;;;;16.20;68.97;100595.11;130323;1091;22571;-61
2021/06/15 05:50:55;;;;;;;21.10;9.85;;;;;;;16.31;68.68;100599.22;130209;1093;22486;-61
2021/06/15 05:53:27;;;;;;;21.60;8.70;;;;;;;16.47;69.12;100606.95;130176;1092;23550;-61
2021/06/15 05:55:59;;;;;;;23.70;9.70;;;;;;;16.62;68.85;100607.48;130167;1091;22564;-61
2021/06/15 05:58:33;;;;;;;24.53;9.17;;;;;;;16.77;69.01;100605.19;130191;1093;22975;-61
2021/06/15 06:01:06;;;;;;;22.35;10.30;;;;;;;16.83;68.10;100606.72;130177;1093;22613;-61
2021/06/15 06:03:38;;;;;;;21.65;8.65;;;;;;;16.92;68.05;100600.80;130214;1093;22528;-60
2021/06/15 06:08:59;;;;;;;23.95;10.00;;;;;;;17.27;68.22;100605.11;130200;1093;23420;-59
2021/06/15 06:11:30;;;;;;;21.65;9.40;;;;;;;17.42;67.42;100597.88;130174;1093;23374;-61
2021/06/15 06:14:02;;;;;;;26.60;9.95;;;;;;;17.51;67.31;100602.50;130192;1093;22515;-62
2021/06/15 06:16:53;;;;;;;21.57;7.93;;;;;;;17.63;67.74;100607.59;130161;1091;22580;-61
2021/06/15 06:19:24;;;;;;;20.40;9.53;;;;;;;17.81;67.09;100603.42;129938;1092;22830;-60
2021/06/15 06:21:56;;;;;;;22.70;10.75;;;;;;;17.94;67.18;100600.77;129888;1092;22564;-58
2021/06/15 06:24:28;;;;;;;23.90;9.40;;;;;;;18.08;66.33;100604.56;129906;1093;22526;-58
2021/06/15 06:27:00;;;;;;;21.65;9.05;;;;;;;18.17;65.87;100613.48;129897;1092;22529;-57
2021/06/15 06:29:34;;;;;;;23.40;8.70;;;;;;;18.25;65.44;100625.02;129882;1093;22507;-57
2021/06/15 06:32:06;;;;;;;18.60;7.57;;;;;;;18.30;64.96;100616.50;129908;1093;22537;-60
2021/06/15 06:34:38;;;;;;;19.60;7.85;;;;;;;18.40;65.23;100599.97;129898;1093;22523;-57
2021/06/15 06:37:10;;;;;;;16.90;7.80;;;;;;;18.55;64.94;100604.02;129884;1093;22566;-56
2021/06/15 06:39:42;;;;;;;19.70;8.20;;;;;;;18.70;64.68;100606.47;129894;1092;22520;-57
2021/06/15 06:42:14;;;;;;;22.30;8.75;;;;;;;18.83;64.06;100603.02;129854;1092;23394;-60
2021/06/15 06:44:48;;;;;;;19.90;6.90;;;;;;;18.89;63.89;100612.97;129904;1093;22496;-59
2021/06/15 06:47:20;;;;;;;23.03;8.53;;;;;;;18.95;63.65;100616.55;129915;1092;22493;-60
2021/06/15 06:49:52;;;;;;;24.17;8.27;;;;;;;18.96;62.83;100614.45;129868;1093;22995;-58
2021/06/15 06:52:24;;;;;;;18.07;6.03;;;;;;;18.98;63.60;100618.30;129886;1093;23111;-59
2021/06/15 06:54:55;;;;;;;20.63;8.23;;;;;;;19.14;63.34;100616.63;129869;1093;22531;-58
2021/06/15 06:57:27;;;;;;;18.73;7.13;;;;;;;19.25;62.89;100610.83;129906;1093;23447;-58
2021/06/15 06:59:59;;;;;;;22.23;7.60;;;;;;;19.35;62.91;100614.87;129928;1093;22483;-58
2021/06/15 07:02:30;;;;;;;19.45;8.20;;;;;;;19.43;62.85;100615.06;129882;1092;22578;-59
2021/06/15 07:05:01;;;;;;;20.37;6.90;;;;;;;19.50;60.95;100600.29;129885;1093;23249;-59
2021/06/15 07:07:33;;;;;;;16.57;6.57;;;;;;;19.46;61.11;100608.31;129874;1093;23317;-58
2021/06/15 07:10:05;;;;;;;18.45;6.35;;;;;;;19.53;61.02;100608.50;129907;1093;22510;-59
2021/06/15 07:12:40;;;;;;;16.00;6.15;;;;;;;19.65;61.19;100597.80;129903;1092;22500;-59
2021/06/15 07:15:16;;;;;;;19.05;7.03;;;;;;;19.68;60.22;100605.21;129883;1093;22484;-59
2021/06/15 07:17:48;;;;;;;19.73;7.38;;;;;;;19.77;60.43;100599.19;129885;1093;22537;-58
2021/06/15 07:20:20;;;;;;;20.60;6.00;;;;;;;19.85;59.99;100600.88;129907;1093;22509;-58
2021/06/15 07:22:52;;;;;;;19.30;5.93;;;;;;;20.00;60.22;100603.27;129912;1093;22538;-57
2021/06/15 07:25:24;;;;;;;17.63;5.80;;;;;;;20.08;59.07;100604.18;129896;1093;22506;-59
2021/06/15 07:27:56;;;;;;;14.68;4.88;;;;;;;20.17;58.85;100603.80;129913;1092;22496;-59
2021/06/15 07:30:31;;;;;;;18.08;5.20;;;;;;;20.22;59.09;100605.81;129866;1093;22616;-59
2021/06/15 07:33:02;;;;;;;17.88;6.03;;;;;;;20.32;58.32;100603.36;129920;1093;22497;-59
2021/06/15 07:35:35;;;;;;;14.08;4.93;;;;;;;20.42;58.23;100605.23;129903;1093;23025;-59
2021/06/15 07:38:06;;;;;;;15.95;5.13;;;;;;;20.55;58.00;100601.69;129879;1093;22495;-59
2021/06/15 07:40:38;;;;;;;13.15;3.48;;;;;;;20.65;57.53;100606.42;129902;1093;22526;-59
2021/06/15 07:43:10;;;;;;;11.70;3.98;;;;;;;20.71;56.51;100597.84;129921;1093;22559;-59
2021/06/15 07:45:43;;;;;;;11.45;4.18;;;;;;;20.72;55.64;100599.36;129904;1093;22518;-59
2021/06/15 07:48:14;;;;;;;14.55;4.68;;;;;;;20.75;56.81;100603.96;129903;1092;22533;-59
2021/06/15 07:50:46;;;;;;;12.43;3.98;;;;;;;20.85;57.00;100597.34;129917;1093;23015;-59
2021/06/15 07:53:18;;;;;;;12.77;3.40;;;;;;;20.90;56.07;100602.13;129895;1093;22509;-59
2021/06/15 07:55:49;;;;;;;12.98;3.83;;;;;;;20.94;56.38;100596.13;129906;1092;22583;-59
2021/06/15 07:58:22;;;;;;;12.75;3.53;;;;;;;21.07;56.66;100587.67;129891;1092;22521;-59
2021/06/15 08:00:54;;;;;;;14.83;4.30;;;;;;;21.22;56.09;100592.83;129877;1092;22572;-58
2021/06/15 08:03:25;;;;;;;14.58;4.35;;;;;;;21.34;56.13;100592.06;129894;1093;23326;-59
2021/06/15 08:05:57;;;;;;;11.55;3.40;;;;;;;21.46;55.96;100593.38;129908;1093;22646;-59
2021/06/15 08:08:29;;;;;;;14.00;4.23;;;;;;;21.57;55.21;100598.84;129848;1093;22545;-59
2021/06/15 08:11:02;;;;;;;15.53;3.85;;;;;;;21.62;54.93;100600.80;129908;1092;22636;-59
2021/06/15 08:13:34;;;;;;;17.38;4.25;;;;;;;21.70;54.66;100607.34;129913;1092;22501;-59
2021/06/15 08:16:07;;;;;;;15.25;3.43;;;;;;;21.77;53.46;100605.17;129896;1093;22598;-59
2021/06/15 08:18:38;;;;;;;11.23;3.05;;;;;;;21.83;53.33;100600.16;129890;1093;22576;-59
2021/06/15 08:21:10;;;;;;;14.15;3.60;;;;;;;21.93;53.81;100604.08;129889;1093;23043;-59
2021/06/15 08:23:42;;;;;;;13.08;3.10;;;;;;;22.01;53.24;100599.25;129856;1093;23316;-59
2021/06/15 08:26:14;;;;;;;13.33;2.88;;;;;;;22.12;52.17;100599.75;129918;1093;22559;-59
2021/06/15 08:28:46;;;;;;;14.65;3.10;;;;;;;22.10;51.84;100605.23;129927;1093;22514;-58
2021/06/15 08:31:22;;;;;;;10.63;3.08;;;;;;;22.12;51.15;100605.44;129874;1093;22642;-59
2021/06/15 08:33:53;;;;;;;10.43;2.40;;;;;;;22.15;51.25;100606.42;129873;1092;23143;-59
2021/06/15 08:36:25;;;;;;;9.85;2.50;;;;;;;22.21;51.07;100601.38;129873;1092;22499;-59
2021/06/15 08:38:56;;;;;;;9.50;2.78;;;;;;;22.26;51.38;100603.34;129881;1093;23350;-59
2021/06/15 08:41:28;;;;;;;10.15;2.83;;;;;;;22.32;51.05;100599.05;129923;1093;22545;-60
2021/06/15 08:43:59;;;;;;;10.88;2.90;;;;;;;22.39;50.59;100600.42;129950;1092;23037;-59
2021/06/15 08:46:32;;;;;;;13.45;2.93;;;;;;;22.40;49.82;100594.20;129898;1093;22565;-59
2021/06/15 08:49:08;;;;;;;11.73;2.80;;;;;;;22.39;48.94;100598.34;129902;1092;22615;-59
2021/06/15 08:51:42;;;;;;;11.58;2.70;;;;;;;22.38;49.53;100585.46;129901;1092;22687;-59
2021/06/15 08:54:17;;;;;;;13.28;2.83;;;;;;;22.46;49.22;100585.52;129919;1092;22528;-59
2021/06/15 08:56:49;;;;;;;10.70;2.38;;;;;;;22.53;49.01;100588.44;129909;1092;23432;-59
2021/06/15 08:59:25;;;;;;;13.20;2.20;;;;;;;22.58;48.52;100586.01;129888;1093;22477;-59
2021/06/15 09:01:58;;;;;;;14.45;2.48;;;;;;;22.64;48.74;100593.13;129900;1093;22995;-59
2021/06/15 09:04:30;;;;;;;15.10;2.75;;;;;;;22.65;48.43;100596.73;129876;1093;23373;-59
2021/06/15 09:07:02;;;;;;;10.73;2.50;;;;;;;22.74;48.58;100591.31;129909;1093;22730;-59
2021/06/15 09:09:42;;;;;;;9.93;2.33;;;;;;;22.86;48.21;100588.97;129921;1093;22582;-59
2021/06/15 09:12:15;;;;;;;10.10;2.50;;;;;;;22.98;48.17;100590.20;129898;1093;22537;-59
2021/06/15 09:14:49;;;;;;;9.55;2.60;;;;;;;23.05;46.47;100589.51;129903;1092;22527;-59
2021/06/15 09:17:36;;;;;;;12.53;2.63;;;;;;;22.98;46.87;100590.97;129889;1093;22558;-59
2021/06/15 09:20:20;;;;;;;13.95;2.90;;;;;;;22.99;47.23;100586.78;129888;1092;22609;-59
2021/06/15 09:23:01;;;;;;;15.50;3.13;;;;;;;22.98;47.30;100584.50;129902;1093;22540;-59
2021/06/15 09:25:34;;;;;;;11.88;2.45;;;;;;;23.02;47.11;100588.53;129929;1093;22475;-60
2021/06/15 09:28:24;;;;;;;10.25;2.10;;;;;;;23.05;46.63;100590.25;129925;1093;23368;-59
2021/06/15 09:31:03;;;;;;;12.33;2.20;;;;;;;23.11;46.73;100585.16;129882;1093;22620;-59
2021/06/15 09:33:43;;;;;;;12.40;2.50;;;;;;;23.23;46.78;100572.17;129900;1092;23146;-59
2021/06/15 09:36:29;;;;;;;9.65;2.18;;;;;;;23.36;46.48;100568.45;129889;1092;23262;-59
2021/06/15 09:39:02;;;;;;;13.63;2.43;;;;;;;23.46;46.39;100571.57;129926;1092;22512;-59
2021/06/15 09:41:38;;;;;;;11.45;2.23;;;;;;;23.55;46.30;100568.95;129905;1093;22577;-59
2021/06/15 09:44:20;;;;;;;13.60;2.35;;;;;;;23.62;46.14;100573.94;129900;1093;22479;-60
2021/06/15 09:46:54;;;;;;;11.73;2.65;;;;;;;23.67;46.04;100577.96;129878;1093;22490;-59
2021/06/15 09:49:34;;;;;;;11.18;2.40;;;;;;;23.75;46.65;100573.83;129912;1093;22671;-59
2021/06/15 09:52:14;;;;;;;9.55;2.33;;;;;;;23.84;45.74;100570.42;129894;1093;22560;-59
2021/06/15 09:54:44;;;;;;;;;;;;;;;23.91;46.27;100568.94;129961;1093;23047;-59
2021/06/15 09:57:25;;;;;;;10.53;2.78;;;;;;;24.02;46.47;100568.61;129893;1093;21235;-60
2021/06/15 10:00:14;;;;;;;12.20;2.30;;;;;;;24.18;46.37;100564.49;129894;1092;22528;-60
2021/06/15 10:02:54;;;;;;;10.83;2.30;;;;;;;24.31;45.77;100564.34;129931;1093;22579;-60
2021/06/15 10:05:31;;;;;;;10.53;2.33;;;;;;;24.34;45.46;100563.19;129882;1092;22542;-59
2021/06/15 10:08:06;;;;;;;13.37;2.43;;;;;;;24.28;44.57;100558.98;129908;1093;22493;-59
2021/06/15 10:10:39;;;;;;;10.33;2.45;;;;;;;24.19;44.51;100563.15;129885;1093;22520;-59
2021/06/15 10:13:11;;;;;;;10.10;1.95;;;;;;;24.18;45.07;100560.88;129888;1093;22525;-59
2021/06/15 10:15:43;;;;;;;16.00;1.95;;;;;;;24.26;44.54;100565.27;129884;1093;22525;-59
2021/06/15 10:18:15;;;;;;;8.73;2.53;;;;;;;24.24;44.30;100565.08;129892;1093;22565;-59
2021/06/15 10:20:47;;;;;;;9.20;2.00;;;;;;;24.23;44.43;100557.83;129856;1093;22530;-59
2021/06/15 10:23:18;;;;;;;8.83;2.13;;;;;;;24.26;44.56;100553.09;129920;1093;22524;-59
2021/06/15 10:25:51;;;;;;;9.85;2.20;;;;;;;24.28;43.97;100561.84;129908;1093;22507;-59
2021/06/15 10:28:24;;;;;;;10.05;1.73;;;;;;;24.27;44.18;100551.77;129919;1093;22536;-59
2021/06/15 10:31:03;;;;;;;10.88;2.30;;;;;;;24.33;44.74;100546.65;129893;1093;22545;-59
2021/06/15 10:33:46;;;;;;;10.73;2.60;;;;;;;24.47;45.08;100540.20;129923;1092;23055;-60
2021/06/15 10:36:18;;;;;;;11.55;2.20;;;;;;;24.64;44.99;100539.64;129877;1093;23266;-60
2021/06/15 10:38:50;;;;;;;14.55;3.03;;;;;;;24.76;43.98;100538.72;129878;1093;22496;-59
2021/06/15 10:41:25;;;;;;;9.38;2.20;;;;;;;24.80;44.03;100539.10;129893;1093;22987;-59
2021/06/15 10:43:58;;;;;;;8.10;1.80;;;;;;;24.86;43.31;100539.66;129908;1092;22541;-59
2021/06/15 10:46:39;;;;;;;6.40;1.70;;;;;;;24.91;43.05;100534.33;129855;1093;22551;-60
2021/06/15 10:49:10;;;;;;;;;;;;;;;24.91;42.66;100534.33;129926;1093;22502;-59
2021/06/15 10:51:53;;;;;;;8.40;1.80;;;;;;;24.86;43.19;100525.39;129896;1092;21254;-60
2021/06/15 10:54:33;;;;;;;7.33;2.05;;;;;;;24.92;42.76;100530.89;129865;1093;22949;-60
2021/06/15 10:57:30;;;;;;;10.55;1.88;;;;;;;25.00;43.22;100525.93;129889;1093;22634;-60
2021/06/15 11:00:26;;;;;;;9.83;1.58;;;;;;;25.04;42.50;100525.56;129905;1093;22602;-59
2021/06/15 11:03:22;;;;;;;6.90;1.70;;;;;;;25.03;41.80;100524.03;129883;1093;22685;-61
2021/06/15 11:05:59;;;;;;;6.65;1.65;;;;;;;25.01;42.02;100523.84;129873;1092;23046;-60
2021/06/15 11:08:33;;;;;;;7.45;2.03;;;;;;;25.02;42.62;100519.64;129897;1092;22514;-60
2021/06/15 11:11:06;;;;;;;8.90;1.93;;;;;;;25.09;42.19;100522.50;129860;1093;22586;-60
2021/06/15 11:13:48;;;;;;;12.98;2.55;;;;;;;25.13;42.15;100513.53;129884;1092;22513;-60
2021/06/15 11:16:28;;;;;;;10.23;2.55;;;;;;;25.17;42.45;100511.81;129871;1093;22539;-60
2021/06/15 11:19:17;;;;;;;;;;;;;;;25.23;42.31;100520.17;129897;1093;22542;-60
2021/06/15 11:21:51;;;;;;;8.23;1.98;;;;;;;25.20;42.18;100502.08;129885;1093;21301;-60
2021/06/15 11:24:24;;;;;;;6.93;2.00;;;;;;;25.12;42.04;100503.45;129935;1093;23386;-60
2021/06/15 11:26:58;;;;;;;10.00;1.90;;;;;;;25.09;42.36;100498.88;129864;1093;22509;-59
2021/06/15 11:29:33;;;;;;;7.40;1.90;;;;;;;25.18;42.34;100499.03;129868;1093;22524;-60
2021/06/15 11:32:22;;;;;;;7.38;1.70;;;;;;;25.26;42.38;100496.17;129880;1093;22553;-59
2021/06/15 11:35:18;;;;;;;11.10;1.93;;;;;;;25.30;42.21;100496.55;129880;1092;22523;-59
2021/06/15 11:37:52;;;;;;;7.15;2.18;;;;;;;25.34;42.28;100496.91;129900;1093;22520;-60
2021/06/15 11:40:32;;;;;;;7.63;1.65;;;;;;;25.37;42.67;100490.80;129876;1093;22525;-61
2021/06/15 11:43:18;;;;;;;7.23;1.73;;;;;;;25.53;42.44;100488.69;129899;1093;22667;-60
2021/06/15 11:45:52;;;;;;;6.83;1.70;;;;;;;25.59;42.18;100478.56;129875;1092;22566;-60
2021/06/15 11:48:33;;;;;;;7.93;1.90;;;;;;;25.65;42.57;100487.67;129904;1093;22524;-60